createdAt,value
2023-04-02T00:00:31.273Z,90.62
2023-04-02T00:01:31.279Z,90.65
2023-04-02T00:02:30.868Z,90.66
2023-04-02T00:03:31.414Z,90.70
2023-04-02T00:04:31.334Z,90.74
2023-04-02T00:05:30.679Z,90.74
2023-04-02T00:06:30.621Z,90.72
2023-04-02T00:07:30.551Z,90.73
2023-04-02T00:08:30.548Z,90.73
2023-04-02T00:09:30.561Z,90.73
2023-04-02T00:10:30.537Z,90.74
2023-04-02T00:11:30.546Z,90.71
2023-04-02T00:12:30.575Z,90.70
2023-04-02T00:13:30.546Z,90.73
2023-04-02T00:14:30.554Z,90.72
2023-04-02T00:15:30.560Z,90.68
2023-04-02T00:16:30.489Z,90.69
2023-04-02T00:17:30.421Z,90.70
2023-04-02T00:18:30.520Z,90.67
2023-04-02T00:19:30.387Z,90.66
2023-04-02T00:20:30.564Z,90.67
2023-04-02T00:21:30.584Z,90.71
2023-04-02T00:22:30.570Z,90.70
2023-04-02T00:23:30.360Z,90.66
2023-04-02T00:24:30.378Z,90.64
2023-04-02T00:25:30.325Z,90.65
2023-04-02T00:26:30.352Z,90.69
2023-04-02T00:27:30.572Z,90.72
2023-04-02T00:28:30.565Z,90.72
2023-04-02T00:29:30.301Z,90.74
2023-04-02T00:30:30.284Z,90.76
2023-04-02T00:31:30.272Z,90.77
2023-04-02T00:32:30.277Z,90.79
2023-04-02T00:33:30.346Z,90.80
2023-04-02T00:34:30.247Z,90.79
2023-04-02T00:35:30.218Z,90.81
2023-04-02T00:36:30.468Z,90.80
2023-04-02T00:37:30.200Z,90.83
2023-04-02T00:38:30.547Z,90.87
2023-04-02T00:39:30.558Z,90.87
2023-04-02T00:40:30.157Z,90.89
2023-04-02T00:41:30.136Z,90.90
2023-04-02T00:42:30.132Z,90.89
2023-04-02T00:43:30.115Z,90.90
2023-04-02T00:44:30.129Z,90.95
2023-04-02T00:45:30.080Z,90.97
2023-04-02T00:46:30.686Z,90.96
2023-04-02T00:47:30.088Z,90.97
2023-04-02T00:48:30.075Z,90.98
2023-04-02T00:49:30.094Z,90.96
2023-04-02T00:50:30.057Z,90.96
2023-04-02T00:51:30.594Z,90.96
2023-04-02T00:52:30.019Z,90.96
2023-04-02T00:53:29.999Z,90.94
2023-04-02T00:54:30.010Z,90.92
2023-04-02T00:55:29.984Z,90.87
2023-04-02T00:56:29.993Z,90.86
2023-04-02T00:57:29.990Z,90.75
2023-04-02T00:58:29.968Z,90.69
2023-04-02T00:59:29.933Z,90.71
2023-04-02T01:00:30.105Z,90.68
2023-04-02T01:01:29.967Z,90.67
2023-04-02T01:02:30.243Z,90.65
2023-04-02T01:03:30.232Z,90.64
2023-04-02T01:04:29.879Z,90.62
2023-04-02T01:05:29.853Z,90.56
2023-04-02T01:06:29.892Z,90.56
2023-04-02T01:07:30.197Z,90.54
2023-04-02T01:08:29.858Z,90.49
2023-04-02T01:09:29.835Z,90.52
2023-04-02T01:10:30.230Z,90.54
2023-04-02T01:11:29.820Z,90.54
2023-04-02T01:12:29.797Z,90.54
2023-04-02T01:13:29.767Z,90.54
2023-04-02T01:14:29.771Z,90.59
2023-04-02T01:15:30.207Z,90.58
2023-04-02T01:16:30.511Z,90.57
2023-04-02T01:17:29.751Z,90.58
2023-04-02T01:18:29.757Z,90.62
2023-04-02T01:19:29.694Z,90.63
2023-04-02T01:20:29.699Z,90.67
2023-04-02T01:21:29.676Z,90.68
2023-04-02T01:22:29.681Z,90.70
2023-04-02T01:23:29.657Z,90.75
2023-04-02T01:24:29.658Z,90.75
2023-04-02T01:25:29.942Z,90.78
2023-04-02T01:26:29.639Z,90.83
2023-04-02T01:27:29.629Z,90.85
2023-04-02T01:28:29.615Z,90.90
2023-04-02T01:29:29.572Z,90.97
2023-04-02T01:30:29.593Z,91.03
2023-04-02T01:31:29.578Z,91.01
2023-04-02T01:32:29.599Z,91.08
2023-04-02T01:33:29.531Z,91.11
2023-04-02T01:34:29.549Z,91.13
2023-04-02T01:35:29.538Z,91.13
2023-04-02T01:36:29.501Z,91.12
2023-04-02T01:37:29.511Z,91.16
2023-04-02T01:38:29.499Z,91.20
2023-04-02T01:39:29.459Z,91.28
2023-04-02T01:40:29.623Z,91.26
2023-04-02T01:41:29.447Z,91.31
2023-04-02T01:42:29.448Z,91.34
2023-04-02T01:43:29.615Z,91.36
2023-04-02T01:44:29.427Z,91.43
2023-04-02T01:45:29.396Z,91.48
2023-04-02T01:46:29.464Z,91.44
2023-04-02T01:47:29.692Z,91.49
2023-04-02T01:48:29.389Z,91.49
2023-04-02T01:49:29.603Z,91.49
2023-04-02T01:50:29.351Z,91.49
2023-04-02T01:51:29.350Z,91.58
2023-04-02T01:52:29.322Z,91.58
2023-04-02T01:53:29.322Z,91.62
2023-04-02T01:54:29.319Z,91.64
2023-04-02T01:55:29.623Z,91.61
2023-04-02T01:56:29.272Z,91.65
2023-04-02T01:57:29.344Z,91.67
2023-04-02T01:58:29.317Z,91.70
2023-04-02T01:59:29.219Z,91.71
2023-04-02T02:00:29.281Z,91.75
2023-04-02T02:01:29.268Z,91.74
2023-04-02T02:02:29.260Z,91.73
2023-04-02T02:03:29.635Z,91.73
2023-04-02T02:04:29.179Z,91.72
2023-04-02T02:05:29.167Z,91.73
2023-04-02T02:06:29.162Z,91.78
2023-04-02T02:07:29.225Z,91.81
2023-04-02T02:08:29.124Z,91.87
2023-04-02T02:09:29.205Z,91.88
2023-04-02T02:10:29.112Z,91.88
2023-04-02T02:11:29.352Z,91.87
2023-04-02T02:12:29.103Z,91.89
2023-04-02T02:13:29.086Z,91.89
2023-04-02T02:14:29.144Z,91.88
2023-04-02T02:15:29.036Z,91.88
2023-04-02T02:16:29.088Z,91.88
2023-04-02T02:17:29.060Z,91.87
2023-04-02T02:18:29.041Z,91.86
2023-04-02T02:19:29.157Z,91.84
2023-04-02T02:20:29.190Z,91.86
2023-04-02T02:21:28.990Z,91.86
2023-04-02T02:22:29.091Z,91.85
2023-04-02T02:23:28.943Z,91.82
2023-04-02T02:24:29.001Z,91.83
2023-04-02T02:25:28.934Z,91.84
2023-04-02T02:26:28.930Z,91.83
2023-04-02T02:27:28.928Z,91.83
2023-04-02T02:28:28.911Z,91.83
2023-04-02T02:29:28.909Z,91.83
2023-04-02T02:30:28.914Z,91.84
2023-04-02T02:31:28.903Z,91.82
2023-04-02T02:32:28.910Z,91.82
2023-04-02T02:33:28.837Z,91.81
2023-04-02T02:34:28.862Z,91.81
2023-04-02T02:35:29.389Z,91.83
2023-04-02T02:36:29.275Z,91.80
2023-04-02T02:37:29.407Z,91.79
2023-04-02T02:38:29.379Z,91.78
2023-04-02T02:39:28.773Z,91.79
2023-04-02T02:40:29.121Z,91.80
2023-04-02T02:41:28.752Z,91.79
2023-04-02T02:42:28.746Z,91.78
2023-04-02T02:43:29.489Z,91.80
2023-04-02T02:44:29.464Z,91.78
2023-04-02T02:45:28.704Z,91.78
2023-04-02T02:46:28.730Z,91.78
2023-04-02T02:47:28.741Z,91.77
2023-04-02T02:48:28.684Z,91.80
2023-04-02T02:49:28.672Z,91.79
2023-04-02T02:50:28.688Z,91.79
2023-04-02T02:51:28.676Z,91.78
2023-04-02T02:52:28.677Z,91.80
2023-04-02T02:53:28.627Z,91.80
2023-04-02T02:54:28.597Z,91.82
2023-04-02T02:55:28.592Z,91.81
2023-04-02T02:56:28.692Z,91.82
2023-04-02T02:57:28.643Z,91.82
2023-04-02T02:58:28.558Z,91.81
2023-04-02T02:59:28.809Z,91.83
2023-04-02T03:00:28.571Z,91.84
2023-04-02T03:01:28.741Z,91.81
2023-04-02T03:02:28.765Z,91.81
2023-04-02T03:03:28.581Z,91.84
2023-04-02T03:04:28.536Z,91.87
2023-04-02T03:05:28.485Z,91.87
2023-04-02T03:06:28.478Z,91.90
2023-04-02T03:07:29.070Z,91.95
2023-04-02T03:08:28.696Z,91.96
2023-04-02T03:09:28.417Z,91.95
2023-04-02T03:10:28.432Z,91.95
2023-04-02T03:11:28.397Z,91.97
2023-04-02T03:12:28.408Z,91.96
2023-04-02T03:13:28.383Z,91.99
2023-04-02T03:14:28.353Z,92.01
2023-04-02T03:15:29.343Z,91.99
2023-04-02T03:16:28.356Z,91.99
2023-04-02T03:17:28.572Z,91.99
2023-04-02T03:18:28.311Z,92.00
2023-04-02T03:19:28.315Z,91.97
2023-04-02T03:20:28.935Z,91.98
2023-04-02T03:21:28.312Z,92.03
2023-04-02T03:22:28.283Z,92.01
2023-04-02T03:23:28.286Z,92.02
2023-04-02T03:24:28.255Z,92.01
2023-04-02T03:25:29.112Z,92.04
2023-04-02T03:26:28.277Z,92.02
2023-04-02T03:27:28.222Z,92.02
2023-04-02T03:28:28.197Z,92.02
2023-04-02T03:29:28.638Z,92.03
2023-04-02T03:30:29.136Z,92.00
2023-04-02T03:31:29.066Z,92.01
2023-04-02T03:32:28.208Z,92.00
2023-04-02T03:33:28.157Z,92.01
2023-04-02T03:34:28.180Z,92.04
2023-04-02T03:35:28.137Z,92.04
2023-04-02T03:36:28.127Z,92.00
2023-04-02T03:37:28.215Z,92.03
2023-04-02T03:38:28.243Z,92.03
2023-04-02T03:39:28.134Z,92.02
2023-04-02T03:40:28.058Z,92.05
2023-04-02T03:41:28.087Z,92.05
2023-04-02T03:42:28.033Z,92.05
2023-04-02T03:43:28.039Z,92.07
2023-04-02T03:44:28.016Z,92.05
2023-04-02T03:45:28.032Z,92.10
2023-04-02T03:46:28.025Z,92.10
2023-04-02T03:47:28.291Z,92.13
2023-04-02T03:48:28.340Z,92.15
2023-04-02T03:49:27.978Z,92.15
2023-04-02T03:50:28.024Z,92.17
2023-04-02T03:51:28.422Z,92.16
2023-04-02T03:52:27.947Z,92.17
2023-04-02T03:53:28.001Z,92.19
2023-04-02T03:54:28.457Z,92.18
2023-04-02T03:55:28.473Z,92.19
2023-04-02T03:56:27.865Z,92.19
2023-04-02T03:57:28.590Z,92.18
2023-04-02T03:58:28.342Z,92.21
2023-04-02T03:59:27.859Z,92.22
2023-04-02T04:00:28.539Z,92.25
2023-04-02T04:01:27.845Z,92.28
2023-04-02T04:02:27.864Z,92.28
2023-04-02T04:03:28.104Z,92.30
2023-04-02T04:04:27.828Z,92.29
2023-04-02T04:05:28.606Z,92.30
2023-04-02T04:06:27.778Z,92.29
2023-04-02T04:07:27.784Z,92.30
2023-04-02T04:08:27.754Z,92.30
2023-04-02T04:09:27.746Z,92.33
2023-04-02T04:10:28.677Z,92.32
2023-04-02T04:11:27.742Z,92.30
2023-04-02T04:12:27.718Z,92.30
2023-04-02T04:13:28.594Z,92.29
2023-04-02T04:14:27.666Z,92.29
2023-04-02T04:15:27.658Z,92.28
2023-04-02T04:16:27.659Z,92.32
2023-04-02T04:17:27.664Z,92.32
2023-04-02T04:18:27.744Z,92.30
2023-04-02T04:19:27.737Z,92.30
2023-04-02T04:20:27.606Z,92.30
2023-04-02T04:21:28.122Z,92.32
2023-04-02T04:22:27.575Z,92.35
2023-04-02T04:23:27.573Z,92.33
2023-04-02T04:24:28.517Z,92.35
2023-04-02T04:25:27.565Z,92.35
2023-04-02T04:26:27.522Z,92.35
2023-04-02T04:27:27.533Z,92.35
2023-04-02T04:28:27.512Z,92.34
2023-04-02T04:29:27.524Z,92.36
2023-04-02T04:30:27.599Z,92.37
2023-04-02T04:31:27.511Z,92.38
2023-04-02T04:32:27.830Z,92.39
2023-04-02T04:33:27.460Z,92.37
2023-04-02T04:34:27.469Z,92.38
2023-04-02T04:35:27.454Z,92.39
2023-04-02T04:36:27.411Z,92.39
2023-04-02T04:37:27.806Z,92.40
2023-04-02T04:38:27.763Z,92.40
2023-04-02T04:39:27.401Z,92.41
2023-04-02T04:40:27.904Z,92.42
2023-04-02T04:41:27.379Z,92.42
2023-04-02T04:42:27.343Z,92.41
2023-04-02T04:43:27.783Z,92.41
2023-04-02T04:44:27.346Z,92.42
2023-04-02T04:45:27.910Z,92.42
2023-04-02T04:46:27.847Z,92.44
2023-04-02T04:47:27.340Z,92.42
2023-04-02T04:48:27.873Z,92.43
2023-04-02T04:49:27.333Z,92.43
2023-04-02T04:50:27.252Z,92.43
2023-04-02T04:51:27.282Z,92.45
2023-04-02T04:52:27.241Z,92.46
2023-04-02T04:53:27.251Z,92.45
2023-04-02T04:54:27.248Z,92.45
2023-04-02T04:55:27.285Z,92.46
2023-04-02T04:56:27.286Z,92.46
2023-04-02T04:57:27.264Z,92.46
2023-04-02T04:58:27.284Z,92.48
2023-04-02T04:59:27.346Z,92.49
2023-04-02T05:00:27.174Z,92.49
2023-04-02T05:01:27.423Z,92.48
2023-04-02T05:02:27.339Z,92.51
2023-04-02T05:03:27.141Z,92.51
2023-04-02T05:04:27.151Z,92.51
2023-04-02T05:05:27.112Z,92.51
2023-04-02T05:06:27.064Z,92.50
2023-04-02T05:07:27.383Z,92.51
2023-04-02T05:08:27.072Z,92.52
2023-04-02T05:09:27.428Z,92.50
2023-04-02T05:10:27.415Z,92.51
2023-04-02T05:11:27.028Z,92.52
2023-04-02T05:12:26.985Z,92.53
2023-04-02T05:13:26.994Z,92.53
2023-04-02T05:14:26.976Z,92.54
2023-04-02T05:15:26.984Z,92.55
2023-04-02T05:16:26.979Z,92.56
2023-04-02T05:17:27.083Z,92.54
2023-04-02T05:18:26.923Z,92.55
2023-04-02T05:19:26.924Z,92.56
2023-04-02T05:20:26.936Z,92.56
2023-04-02T05:21:26.913Z,92.56
2023-04-02T05:22:27.178Z,92.57
2023-04-02T05:23:27.218Z,92.58
2023-04-02T05:24:26.851Z,92.56
2023-04-02T05:25:27.261Z,92.59
2023-04-02T05:26:27.292Z,92.59
2023-04-02T05:27:26.851Z,92.59
2023-04-02T05:28:26.808Z,92.60
2023-04-02T05:29:26.820Z,92.60
2023-04-02T05:30:26.807Z,92.60
2023-04-02T05:31:26.894Z,92.59
2023-04-02T05:32:26.818Z,92.60
2023-04-02T05:33:26.816Z,92.60
2023-04-02T05:34:26.738Z,92.61
2023-04-02T05:35:26.741Z,92.62
2023-04-02T05:36:26.807Z,92.62
2023-04-02T05:37:26.725Z,92.64
2023-04-02T05:38:26.701Z,92.63
2023-04-02T05:39:26.718Z,92.66
2023-04-02T05:40:26.682Z,92.65
2023-04-02T05:41:26.829Z,92.65
2023-04-02T05:42:26.655Z,92.66
2023-04-02T05:43:26.653Z,92.68
2023-04-02T05:44:26.637Z,92.69
2023-04-02T05:45:26.645Z,92.69
2023-04-02T05:46:27.479Z,92.69
2023-04-02T05:47:26.651Z,92.70
2023-04-02T05:48:26.569Z,92.70
2023-04-02T05:49:26.589Z,92.72
2023-04-02T05:50:26.578Z,92.74
2023-04-02T05:51:26.565Z,92.76
2023-04-02T05:52:26.543Z,92.75
2023-04-02T05:53:26.568Z,92.75
2023-04-02T05:54:26.815Z,92.76
2023-04-02T05:55:26.825Z,92.77
2023-04-02T05:56:26.500Z,92.76
2023-04-02T05:57:39.819Z,92.75
2023-04-02T05:59:26.481Z,92.77
2023-04-02T06:00:26.447Z,92.75
2023-04-02T06:01:26.456Z,92.73
2023-04-02T06:02:26.546Z,92.75
2023-04-02T06:03:26.535Z,92.76
2023-04-02T06:04:26.403Z,92.75
2023-04-02T06:05:26.483Z,92.76
2023-04-02T06:06:26.364Z,92.79
2023-04-02T06:07:26.401Z,92.79
2023-04-02T06:08:26.345Z,92.77
2023-04-02T06:09:26.385Z,92.80
2023-04-02T06:10:26.327Z,92.79
2023-04-02T06:11:26.659Z,92.79
2023-04-02T06:12:26.333Z,92.78
2023-04-02T06:13:26.359Z,92.81
2023-04-02T06:14:26.298Z,92.82
2023-04-02T06:15:26.296Z,92.81
2023-04-02T06:16:26.299Z,92.81
2023-04-02T06:17:26.327Z,92.80
2023-04-02T06:18:26.254Z,92.74
2023-04-02T06:19:26.238Z,92.70
2023-04-02T06:20:26.209Z,92.64
2023-04-02T06:21:26.383Z,92.58
2023-04-02T06:22:26.183Z,92.49
2023-04-02T06:23:26.187Z,92.47
2023-04-02T06:24:26.173Z,92.30
2023-04-02T06:25:26.184Z,91.36
2023-04-02T06:26:26.139Z,90.07
2023-04-02T06:27:26.483Z,89.26
2023-04-02T06:28:26.130Z,87.67
2023-04-02T06:29:26.478Z,87.09
2023-04-02T06:30:26.490Z,86.91
2023-04-02T06:31:26.141Z,87.11
2023-04-02T06:32:26.133Z,86.84
2023-04-02T06:33:26.077Z,86.27
2023-04-02T06:34:26.075Z,86.10
2023-04-02T06:35:26.558Z,85.53
2023-04-02T06:36:26.034Z,85.28
2023-04-02T06:37:26.601Z,84.72
2023-04-02T06:38:26.583Z,84.74
2023-04-02T06:39:26.019Z,84.83
2023-04-02T06:40:26.003Z,84.91
2023-04-02T06:41:25.985Z,84.95
2023-04-02T06:42:26.658Z,84.82
2023-04-02T06:43:26.652Z,84.88
2023-04-02T06:44:25.932Z,84.97
2023-04-02T06:45:26.705Z,84.95
2023-04-02T06:46:26.742Z,84.48
2023-04-02T06:47:26.730Z,84.70
2023-04-02T06:48:25.882Z,84.81
2023-04-02T06:49:25.924Z,84.99
2023-04-02T06:50:25.914Z,85.22
2023-04-02T06:51:25.908Z,85.06
2023-04-02T06:52:25.850Z,84.87
2023-04-02T06:53:25.864Z,84.78
2023-04-02T06:54:25.860Z,84.45
2023-04-02T06:55:25.907Z,84.21
2023-04-02T06:56:25.805Z,83.49
2023-04-02T06:57:25.893Z,83.69
2023-04-02T06:58:25.775Z,83.94
2023-04-02T06:59:25.777Z,83.82
2023-04-02T07:00:25.864Z,83.57
2023-04-02T07:01:25.866Z,83.75
2023-04-02T07:02:25.746Z,83.76
2023-04-02T07:03:25.740Z,83.65
2023-04-02T07:04:25.730Z,83.57
2023-04-02T07:05:25.715Z,83.73
2023-04-02T07:06:25.875Z,84.20
2023-04-02T07:07:25.704Z,84.31
2023-04-02T07:08:25.675Z,84.45
2023-04-02T07:09:25.663Z,84.95
2023-04-02T07:10:25.676Z,85.37
2023-04-02T07:11:25.694Z,85.62
2023-04-02T07:12:25.608Z,85.65
2023-04-02T07:13:25.607Z,85.73
2023-04-02T07:14:25.606Z,85.85
2023-04-02T07:15:25.589Z,85.81
2023-04-02T07:16:25.754Z,85.84
2023-04-02T07:17:25.609Z,86.02
2023-04-02T07:18:25.538Z,86.25
2023-04-02T07:19:25.570Z,86.53
2023-04-02T07:20:25.523Z,86.79
2023-04-02T07:21:25.535Z,87.03
2023-04-02T07:22:25.739Z,87.22
2023-04-02T07:23:25.496Z,87.31
2023-04-02T07:24:25.474Z,87.44
2023-04-02T07:25:25.474Z,87.45
2023-04-02T07:26:25.449Z,87.47
2023-04-02T07:27:25.493Z,87.52
2023-04-02T07:28:25.430Z,87.58
2023-04-02T07:29:25.423Z,87.68
2023-04-02T07:30:25.896Z,87.57
2023-04-02T07:31:25.420Z,87.60
2023-04-02T07:32:25.447Z,87.71
2023-04-02T07:33:25.350Z,87.88
2023-04-02T07:34:25.365Z,87.79
2023-04-02T07:35:25.344Z,87.86
2023-04-02T07:36:25.395Z,87.86
2023-04-02T07:37:25.317Z,87.81
2023-04-02T07:38:25.374Z,87.74
2023-04-02T07:39:25.293Z,87.71
2023-04-02T07:40:25.314Z,87.75
2023-04-02T07:41:25.267Z,87.70
2023-04-02T07:42:25.286Z,87.58
2023-04-02T07:43:25.274Z,87.62
2023-04-02T07:44:25.243Z,87.68
2023-04-02T07:45:25.213Z,87.63
2023-04-02T07:46:25.249Z,87.50
2023-04-02T07:47:25.257Z,87.48
2023-04-02T07:48:25.234Z,87.40
2023-04-02T07:49:25.203Z,87.39
2023-04-02T07:50:25.182Z,87.44
2023-04-02T07:51:25.169Z,87.57
2023-04-02T07:52:25.155Z,87.55
2023-04-02T07:53:25.154Z,87.31
2023-04-02T07:54:25.155Z,87.15
2023-04-02T07:55:25.114Z,87.16
2023-04-02T07:56:25.112Z,87.20
2023-04-02T07:57:25.120Z,86.98
2023-04-02T07:58:25.079Z,86.96
2023-04-02T07:59:25.073Z,86.93
2023-04-02T08:00:25.062Z,86.99
2023-04-02T08:01:25.044Z,87.07
2023-04-02T08:02:25.749Z,87.08
2023-04-02T08:03:25.118Z,87.17
2023-04-02T08:04:25.110Z,87.27
2023-04-02T08:05:24.987Z,87.31
2023-04-02T08:06:25.005Z,87.25
2023-04-02T08:07:24.982Z,87.24
2023-04-02T08:08:24.981Z,87.28
2023-04-02T08:09:24.981Z,87.37
2023-04-02T08:10:25.814Z,87.41
2023-04-02T08:11:24.923Z,87.29
2023-04-02T08:12:24.936Z,87.25
2023-04-02T08:13:24.912Z,87.29
2023-04-02T08:14:24.917Z,87.37
2023-04-02T08:15:24.889Z,86.79
2023-04-02T08:16:24.907Z,86.49
2023-04-02T08:17:24.880Z,86.87
2023-04-02T08:18:24.921Z,86.90
2023-04-02T08:19:24.839Z,86.85
2023-04-02T08:20:24.861Z,86.89
2023-04-02T08:21:24.921Z,86.79
2023-04-02T08:22:24.849Z,86.79
2023-04-02T08:23:24.789Z,86.84
2023-04-02T08:24:24.793Z,86.89
2023-04-02T08:25:24.792Z,87.03
2023-04-02T08:26:24.795Z,87.03
2023-04-02T08:27:24.754Z,86.94
2023-04-02T08:28:24.756Z,86.91
2023-04-02T08:29:24.727Z,86.86
2023-04-02T08:30:24.729Z,86.84
2023-04-02T08:31:24.737Z,86.73
2023-04-02T08:32:24.740Z,85.14
2023-04-02T08:33:24.665Z,85.16
2023-04-02T08:34:24.934Z,85.52
2023-04-02T08:35:24.676Z,85.79
2023-04-02T08:36:24.764Z,86.12
2023-04-02T08:37:24.683Z,86.38
2023-04-02T08:38:24.661Z,86.61
2023-04-02T08:39:24.611Z,86.56
2023-04-02T08:40:24.611Z,86.53
2023-04-02T08:41:24.617Z,86.55
2023-04-02T08:42:24.984Z,86.47
2023-04-02T08:43:24.592Z,86.51
2023-04-02T08:44:24.576Z,86.72
2023-04-02T08:45:25.765Z,86.94
2023-04-02T08:46:24.600Z,86.71
2023-04-02T08:47:24.576Z,86.53
2023-04-02T08:48:24.622Z,86.58
2023-04-02T08:49:24.516Z,86.62
2023-04-02T08:50:24.941Z,86.61
2023-04-02T08:51:24.576Z,86.64
2023-04-02T08:52:24.603Z,85.87
2023-04-02T08:53:24.529Z,84.92
2023-04-02T08:54:24.974Z,85.38
2023-04-02T08:55:24.492Z,85.67
2023-04-02T08:56:24.500Z,85.78
2023-04-02T08:57:24.553Z,85.89
2023-04-02T08:58:24.453Z,86.00
2023-04-02T08:59:24.390Z,86.17
2023-04-02T09:00:24.413Z,86.18
2023-04-02T09:01:24.349Z,86.28
2023-04-02T09:02:24.481Z,86.35
2023-04-02T09:03:24.326Z,86.42
2023-04-02T09:04:24.424Z,86.27
2023-04-02T09:05:24.360Z,86.27
2023-04-02T09:06:24.550Z,86.40
2023-04-02T09:07:24.561Z,86.55
2023-04-02T09:08:24.305Z,86.77
2023-04-02T09:09:24.268Z,86.79
2023-04-02T09:10:24.584Z,86.88
2023-04-02T09:11:24.647Z,87.04
2023-04-02T09:12:24.230Z,86.89
2023-04-02T09:13:24.288Z,86.54
2023-04-02T09:14:24.251Z,86.43
2023-04-02T09:15:24.358Z,86.48
2023-04-02T09:16:24.240Z,86.04
2023-04-02T09:17:24.205Z,85.89
2023-04-02T09:18:24.229Z,86.03
2023-04-02T09:19:24.220Z,86.14
2023-04-02T09:20:24.444Z,86.06
2023-04-02T09:21:24.192Z,86.13
2023-04-02T09:22:24.499Z,86.01
2023-04-02T09:23:24.556Z,85.64
2023-04-02T09:24:24.560Z,85.56
2023-04-02T09:25:24.610Z,85.72
2023-04-02T09:26:24.617Z,85.72
2023-04-02T09:27:24.078Z,85.97
2023-04-02T09:28:24.048Z,86.23
2023-04-02T09:29:24.752Z,86.50
2023-04-02T09:30:24.730Z,86.59
2023-04-02T09:31:24.142Z,86.55
2023-04-02T09:32:24.834Z,86.47
2023-04-02T09:33:24.046Z,86.53
2023-04-02T09:34:24.008Z,86.15
2023-04-02T09:35:26.674Z,85.95
2023-04-02T09:36:24.046Z,85.88
2023-04-02T09:37:24.023Z,85.98
2023-04-02T09:38:23.993Z,86.21
2023-04-02T09:39:24.000Z,86.55
2023-04-02T09:40:23.990Z,86.69
2023-04-02T09:41:24.009Z,86.80
2023-04-02T09:42:23.887Z,86.84
2023-04-02T09:43:23.880Z,86.87
2023-04-02T09:44:23.875Z,86.85
2023-04-02T09:45:23.829Z,86.88
2023-04-02T09:46:24.030Z,86.93
2023-04-02T09:47:23.877Z,87.00
2023-04-02T09:48:23.814Z,86.91
2023-04-02T09:49:23.802Z,86.81
2023-04-02T09:50:23.819Z,86.74
2023-04-02T09:51:23.761Z,86.85
2023-04-02T09:52:23.763Z,86.87
2023-04-02T09:53:23.744Z,86.82
2023-04-02T09:54:24.004Z,86.72
2023-04-02T09:55:23.729Z,86.74
2023-04-02T09:56:23.715Z,86.53
2023-04-02T09:57:23.939Z,86.09
2023-04-02T09:58:23.697Z,86.15
2023-04-02T09:59:23.724Z,86.20
2023-04-02T10:01:23.680Z,86.28
2023-04-02T10:02:23.754Z,85.90
2023-04-02T10:03:23.647Z,85.22
2023-04-02T10:04:25.871Z,84.52
2023-04-02T10:05:38.923Z,84.56
2023-04-02T10:06:24.602Z,84.74
2023-04-02T10:07:23.573Z,84.90
2023-04-02T10:08:23.591Z,85.15
2023-04-02T10:09:23.559Z,85.37
2023-04-02T10:10:25.258Z,85.43
2023-04-02T10:11:25.396Z,85.02
2023-04-02T10:12:23.534Z,84.81
2023-04-02T10:13:23.588Z,84.82
2023-04-02T10:14:23.515Z,84.67
2023-04-02T10:15:23.497Z,83.78
2023-04-02T10:16:25.592Z,82.60
2023-04-02T10:17:23.483Z,82.57
2023-04-02T10:18:23.497Z,82.84
2023-04-02T10:19:23.434Z,83.10
2023-04-02T10:20:23.477Z,83.15
2023-04-02T10:21:23.408Z,82.69
2023-04-02T10:22:23.411Z,83.05
2023-04-02T10:23:23.453Z,82.83
2023-04-02T10:24:23.409Z,82.09
2023-04-02T10:25:23.388Z,81.60
2023-04-02T10:26:23.609Z,81.07
2023-04-02T10:27:23.345Z,80.93
2023-04-02T10:28:23.349Z,81.68
2023-04-02T10:29:23.338Z,82.91
2023-04-02T10:30:23.343Z,82.73
2023-04-02T10:31:23.387Z,82.52
2023-04-02T10:32:23.295Z,81.06
2023-04-02T10:33:23.358Z,80.75
2023-04-02T10:34:23.708Z,80.64
2023-04-02T10:35:23.251Z,80.58
2023-04-02T10:36:23.283Z,80.91
2023-04-02T10:37:23.226Z,81.48
2023-04-02T10:38:23.233Z,81.71
2023-04-02T10:39:23.220Z,80.79
2023-04-02T10:40:23.231Z,80.19
2023-04-02T10:41:23.224Z,80.48
2023-04-02T10:42:23.832Z,80.64
2023-04-02T10:43:23.170Z,80.24
2023-04-02T10:44:23.180Z,80.88
2023-04-02T10:45:23.887Z,81.14
2023-04-02T10:46:25.348Z,81.11
2023-04-02T10:47:23.916Z,80.24
2023-04-02T10:48:23.134Z,80.08
2023-04-02T10:49:23.199Z,80.80
2023-04-02T10:50:23.201Z,80.71
2023-04-02T10:51:23.066Z,80.65
2023-04-02T10:52:23.249Z,80.63
2023-04-02T10:53:23.316Z,80.41
2023-04-02T10:54:23.041Z,80.53
2023-04-02T10:55:23.035Z,80.53
2023-04-02T10:56:23.025Z,80.85
2023-04-02T10:57:23.535Z,79.95
2023-04-02T10:58:23.057Z,80.76
2023-04-02T10:59:23.059Z,80.51
2023-04-02T11:00:23.494Z,80.30
2023-04-02T11:01:23.489Z,80.42
2023-04-02T11:02:23.052Z,80.44
2023-04-02T11:03:23.741Z,80.86
2023-04-02T11:04:22.932Z,81.58
2023-04-02T11:05:23.659Z,80.70
2023-04-02T11:06:23.086Z,80.21
2023-04-02T11:07:23.053Z,80.70
2023-04-02T11:08:23.773Z,80.56
2023-04-02T11:09:23.789Z,80.32
2023-04-02T11:10:22.843Z,80.77
2023-04-02T11:11:23.801Z,80.85
2023-04-02T11:12:23.710Z,80.33
2023-04-02T11:13:23.613Z,80.16
2023-04-02T11:14:23.057Z,80.52
2023-04-02T11:15:23.051Z,80.40
2023-04-02T11:16:22.816Z,79.93
2023-04-02T11:17:22.837Z,80.12
2023-04-02T11:18:23.076Z,79.53
2023-04-02T11:19:23.077Z,79.46
2023-04-02T11:20:22.820Z,79.46
2023-04-02T11:21:22.802Z,79.38
2023-04-02T11:22:22.857Z,79.04
2023-04-02T11:23:22.800Z,79.07
2023-04-02T11:24:22.700Z,79.11
2023-04-02T11:25:22.680Z,79.60
2023-04-02T11:26:22.712Z,79.77
2023-04-02T11:27:22.655Z,79.48
2023-04-02T11:28:24.652Z,79.06
2023-04-02T11:29:22.656Z,79.36
2023-04-02T11:30:22.671Z,79.51
2023-04-02T11:31:22.716Z,79.64
2023-04-02T11:32:22.678Z,79.66
2023-04-02T11:33:35.836Z,79.36
2023-04-02T11:34:23.574Z,79.40
2023-04-02T11:35:22.595Z,79.94
2023-04-02T11:36:22.605Z,80.04
2023-04-02T11:37:22.640Z,80.18
2023-04-02T11:38:22.616Z,79.96
2023-04-02T11:39:22.594Z,79.45
2023-04-02T11:40:22.607Z,79.53
2023-04-02T11:41:22.618Z,79.49
2023-04-02T11:42:22.484Z,79.02
2023-04-02T11:43:22.449Z,79.35
2023-04-02T11:44:22.456Z,79.54
2023-04-02T11:45:22.601Z,79.07
2023-04-02T11:46:22.663Z,78.82
2023-04-02T11:47:22.696Z,78.52
2023-04-02T11:48:22.605Z,79.24
2023-04-02T11:49:22.609Z,78.99
2023-04-02T11:50:22.402Z,78.51
2023-04-02T11:51:22.488Z,78.15
2023-04-02T11:52:22.362Z,78.11
2023-04-02T11:53:22.369Z,77.98
2023-04-02T11:54:22.606Z,78.26
2023-04-02T11:55:22.632Z,78.47
2023-04-02T11:56:22.616Z,78.94
2023-04-02T11:57:22.645Z,78.56
2023-04-02T11:58:22.272Z,78.11
2023-04-02T11:59:22.289Z,77.89
2023-04-02T12:00:22.254Z,78.18
2023-04-02T12:01:22.642Z,78.49
2023-04-02T12:02:22.685Z,78.48
2023-04-02T12:03:22.689Z,78.36
2023-04-02T12:04:22.286Z,78.54
2023-04-02T12:05:22.667Z,78.00
2023-04-02T12:06:22.648Z,77.79
2023-04-02T12:07:22.245Z,77.58
2023-04-02T12:08:22.153Z,77.34
2023-04-02T12:09:22.644Z,77.10
2023-04-02T12:10:22.617Z,77.50
2023-04-02T12:11:22.643Z,77.33
2023-04-02T12:12:22.112Z,76.94
2023-04-02T12:13:22.624Z,77.60
2023-04-02T12:14:22.137Z,77.90
2023-04-02T12:15:22.102Z,76.73
2023-04-02T12:16:22.126Z,76.23
2023-04-02T12:17:22.221Z,76.59
2023-04-02T12:18:22.103Z,75.95
2023-04-02T12:19:22.045Z,75.65
2023-04-02T12:20:22.013Z,75.64
2023-04-02T12:21:22.022Z,76.20
2023-04-02T12:22:22.104Z,76.23
2023-04-02T12:23:22.022Z,76.14
2023-04-02T12:24:21.996Z,76.16
2023-04-02T12:25:22.193Z,76.32
2023-04-02T12:26:23.112Z,76.32
2023-04-02T12:27:21.966Z,76.34
2023-04-02T12:28:22.131Z,76.41
2023-04-02T12:29:22.114Z,76.72
2023-04-02T12:30:21.978Z,76.49
2023-04-02T12:31:22.022Z,76.19
2023-04-02T12:32:21.930Z,76.22
2023-04-02T12:33:22.122Z,75.86
2023-04-02T12:34:22.119Z,75.94
2023-04-02T12:35:22.140Z,76.15
2023-04-02T12:36:21.909Z,76.42
2023-04-02T12:37:21.967Z,76.31
2023-04-02T12:38:21.814Z,76.35
2023-04-02T12:39:22.129Z,76.04
2023-04-02T12:40:21.843Z,75.47
2023-04-02T12:41:22.123Z,75.04
2023-04-02T12:42:21.770Z,74.60
2023-04-02T12:43:21.768Z,74.70
2023-04-02T12:44:21.736Z,75.06
2023-04-02T12:45:21.920Z,75.46
2023-04-02T12:46:22.175Z,74.95
2023-04-02T12:47:22.134Z,74.76
2023-04-02T12:48:21.684Z,75.03
2023-04-02T12:49:22.133Z,75.98
2023-04-02T12:50:22.123Z,76.20
2023-04-02T12:51:21.663Z,76.43
2023-04-02T12:52:22.137Z,76.67
2023-04-02T12:53:21.805Z,75.71
2023-04-02T12:54:21.639Z,75.24